Time;durP1;ratioP1;P1;durP2;ratioP2;P2;SDS_P1;SDS_P2;PMS_P1;PMS_P2;Temp;Humidity;BMP_temperature;BMP_pressure;BME280_temperature;BME280_humidity;BME280_pressure;Samples;Min_cycle;Max_cycle;Signal;HPM_P1;HPM_P2
2022/03/09 00:00:22;;;;;;;4.65;3.38;;;0.10;99.90;;;;;;6168176;23;20052;-87
2022/03/09 00:02:48;;;;;;;3.63;2.42;;;0.20;99.90;;;;;;6169497;23;20020;-87
2022/03/09 00:05:14;;;;;;;;;;;1.20;99.90;;;;;;6184907;23;20021;-86
2022/03/09 00:07:40;;;;;;;4.13;2.45;;;0.10;99.90;;;;;;6142329;23;19975;-85
2022/03/09 00:10:06;;;;;;;4.88;2.65;;;1.40;99.90;;;;;;6187192;23;20021;-86
2022/03/09 00:12:33;;;;;;;3.25;2.08;;;0.10;99.90;;;;;;6158482;23;20039;-86
2022/03/09 00:14:59;;;;;;;3.60;2.60;;;0.10;99.90;;;;;;6182818;23;20021;-85
2022/03/09 00:17:25;;;;;;;2.67;2.28;;;1.60;99.90;;;;;;6109407;23;20101;-86
2022/03/09 00:19:50;;;;;;;6.70;3.20;;;0.00;99.90;;;;;;6156616;23;20021;-85
2022/03/09 00:22:16;;;;;;;6.35;3.40;;;0.00;99.90;;;;;;6158783;23;20017;-85
2022/03/09 00:24:42;;;;;;;5.28;3.47;;;0.00;99.90;;;;;;6187423;23;20023;-85
2022/03/09 00:27:08;;;;;;;3.72;2.83;;;-0.10;99.90;;;;;;6160911;23;20013;-86
2022/03/09 00:29:34;;;;;;;;;;;-0.10;99.90;;;;;;6133896;23;20478;-85
2022/03/09 00:32:00;;;;;;;9.25;3.45;;;-0.10;99.90;;;;;;6208169;23;19912;-85
2022/03/09 00:34:26;;;;;;;;;;;-0.20;99.90;;;;;;6157361;23;20032;-85
2022/03/09 00:36:52;;;;;;;6.75;3.38;;;0.60;99.90;;;;;;6182787;23;20243;-85
2022/03/09 00:39:17;;;;;;;5.15;2.58;;;-0.40;99.90;;;;;;6134697;23;20017;-85
2022/03/09 00:41:43;;;;;;;5.03;2.80;;;1.00;99.90;;;;;;6157675;23;20024;-86
2022/03/09 00:44:09;;;;;;;3.17;2.72;;;-0.40;99.90;;;;;;6158308;23;20017;-86
2022/03/09 00:46:35;;;;;;;;;;;0.90;99.90;;;;;;6182745;23;20064;-86
2022/03/09 00:49:01;;;;;;;3.38;2.30;;;-0.40;99.90;;;;;;6157591;23;19919;-86
2022/03/09 00:51:27;;;;;;;3.80;2.58;;;0.20;99.90;;;;;;6183214;23;20401;-87
2022/03/09 00:53:53;;;;;;;3.78;2.33;;;1.20;99.90;;;;;;6182669;23;20549;-87
2022/03/09 00:56:18;;;;;;;3.85;2.10;;;-0.50;99.90;;;;;;6183374;23;20020;-86
2022/03/09 00:58:44;;;;;;;4.50;2.72;;;-0.50;99.90;;;;;;6157625;23;20064;-86
2022/03/09 01:01:10;;;;;;;;;;;-0.60;99.90;;;;;;6158772;23;20091;-86
2022/03/09 01:03:36;;;;;;;3.05;2.25;;;-0.60;99.90;;;;;;6181600;23;19955;-86
2022/03/09 01:06:02;;;;;;;3.58;2.65;;;-0.60;99.90;;;;;;6182233;23;20401;-85
2022/03/09 01:08:28;;;;;;;;;;;-0.30;99.90;;;;;;6158630;23;20388;-86
2022/03/09 01:10:54;;;;;;;4.32;2.85;;;-0.60;99.90;;;;;;6156947;23;19924;-85
2022/03/09 01:13:19;;;;;;;;;;;-0.60;99.90;;;;;;6182085;23;20024;-85
2022/03/09 01:15:45;;;;;;;3.88;2.83;;;-0.60;99.90;;;;;;6156706;23;19962;-86
2022/03/09 01:18:12;;;;;;;4.50;2.42;;;-0.70;99.90;;;;;;6131841;23;20347;-85
2022/03/09 01:20:37;;;;;;;3.80;3.08;;;0.70;99.90;;;;;;6108304;23;20392;-85
2022/03/09 01:23:03;;;;;;;7.03;2.53;;;-0.80;99.90;;;;;;6157231;23;20025;-86
2022/03/09 01:25:29;;;;;;;3.80;2.63;;;-0.80;99.90;;;;;;6132552;23;20021;-85
2022/03/09 01:27:54;;;;;;;3.63;2.78;;;-0.80;99.90;;;;;;6156576;23;20056;-85
2022/03/09 01:30:20;;;;;;;;;;;-0.90;99.90;;;;;;6157510;23;20032;-85
2022/03/09 01:32:46;;;;;;;3.97;2.75;;;-0.90;99.90;;;;;;6156731;23;19916;-85
2022/03/09 01:35:12;;;;;;;3.70;2.47;;;0.40;99.90;;;;;;6132818;23;20024;-85
2022/03/09 01:37:37;;;;;;;4.82;3.00;;;-0.90;99.90;;;;;;6183066;23;20060;-85
2022/03/09 01:40:03;;;;;;;;;;;-0.90;99.90;;;;;;6160917;23;20017;-85
2022/03/09 01:42:29;;;;;;;5.38;2.95;;;-0.90;99.90;;;;;;6208759;23;19943;-86
2022/03/09 01:44:59;;;;;;;;;;;-0.90;99.90;;;;;;6159270;23;20388;-86
2022/03/09 01:47:25;;;;;;;3.88;2.50;;;-0.90;99.90;;;;;;6159540;23;20250;-86
2022/03/09 01:49:50;;;;;;;3.63;2.22;;;-0.80;99.90;;;;;;6133202;23;20083;-86
2022/03/09 01:52:16;;;;;;;3.72;2.75;;;-0.90;99.90;;;;;;6134347;23;20036;-87
2022/03/09 01:54:42;;;;;;;;;;;-0.40;99.90;;;;;;6110190;23;20029;-85
2022/03/09 01:57:08;;;;;;;3.95;2.65;;;-0.90;99.90;;;;;;6183506;23;19912;-84
2022/03/09 01:59:34;;;;;;;2.47;2.00;;;-0.90;99.90;;;;;;6158760;23;20021;-85
2022/03/09 02:02:00;;;;;;;6.35;3.15;;;-0.70;99.90;;;;;;6183261;23;20027;-85
2022/03/09 02:04:27;;;;;;;3.95;2.40;;;-0.90;99.90;;;;;;6182738;23;20470;-85
2022/03/09 02:06:52;;;;;;;4.40;3.10;;;-0.80;99.90;;;;;;6158237;23;20340;-85
2022/03/09 02:12:18;;;;;;;5.15;3.42;;;-1.00;99.90;;;;;;6115945;23;20108;-86
2022/03/09 02:14:49;;;;;;;3.00;2.70;;;-0.50;99.90;;;;;;6182373;23;20049;-86
2022/03/09 02:17:25;;;;;;;5.18;2.95;;;-1.10;99.90;;;;;;6158375;23;20032;-86
2022/03/09 02:19:51;;;;;;;4.18;2.30;;;-1.20;99.90;;;;;;6157254;23;20048;-85
2022/03/09 02:22:20;;;;;;;;;;;-1.20;99.90;;;;;;6134701;23;20470;-85
2022/03/09 02:24:51;;;;;;;3.95;2.55;;;-1.30;99.90;;;;;;6158689;23;19916;-85
2022/03/09 02:27:20;;;;;;;5.95;3.33;;;-1.30;99.90;;;;;;6133860;23;20384;-84
2022/03/09 02:29:47;;;;;;;4.43;3.25;;;-1.20;99.90;;;;;;6182262;23;20096;-85
2022/03/09 02:32:13;;;;;;;4.55;2.90;;;-1.20;99.90;;;;;;6182724;23;20031;-84
2022/03/09 02:34:38;;;;;;;3.15;2.65;;;-1.20;99.90;;;;;;6182260;23;20104;-84
2022/03/09 02:37:04;;;;;;;;;;;-1.20;99.90;;;;;;6133613;23;20024;-86
2022/03/09 02:39:29;;;;;;;5.13;2.80;;;-1.20;99.90;;;;;;6158197;23;19924;-85
2022/03/09 02:41:55;;;;;;;;;;;-1.20;99.90;;;;;;6157787;23;20049;-86
2022/03/09 02:44:21;;;;;;;2.95;2.53;;;-1.20;99.90;;;;;;6182225;23;19959;-85
2022/03/09 02:46:47;;;;;;;4.63;3.53;;;-1.20;99.90;;;;;;6157342;23;20021;-85
2022/03/09 02:49:12;;;;;;;10.68;3.65;;;-1.10;99.90;;;;;;6190750;23;20055;-85
2022/03/09 02:51:38;;;;;;;3.88;2.50;;;-1.20;99.90;;;;;;6139034;23;20028;-85
2022/03/09 02:54:04;;;;;;;7.72;3.42;;;-1.20;99.90;;;;;;6159667;23;20047;-85
2022/03/09 02:56:30;;;;;;;;;;;-1.20;99.90;;;;;;6159484;23;20028;-84
2022/03/09 02:58:55;;;;;;;6.07;2.90;;;-1.20;99.90;;;;;;6182452;23;19920;-85
2022/03/09 03:01:21;;;;;;;4.15;3.00;;;-1.20;99.90;;;;;;6133140;23;20017;-85
2022/03/09 03:03:47;;;;;;;4.00;3.00;;;-1.20;99.90;;;;;;6132005;23;20017;-84
2022/03/09 03:06:13;;;;;;;5.63;3.38;;;-1.30;99.90;;;;;;6157673;23;20096;-84
2022/03/09 03:08:39;;;;;;;5.80;2.90;;;-0.50;99.90;;;;;;6182046;23;20027;-84
2022/03/09 03:11:08;;;;;;;8.48;3.97;;;-0.30;99.90;;;;;;6157451;23;20060;-85
2022/03/09 03:13:34;;;;;;;6.22;3.78;;;-1.30;99.90;;;;;;6181904;23;20253;-85
2022/03/09 03:16:00;;;;;;;3.33;2.63;;;-1.20;99.90;;;;;;6182627;23;20017;-84
2022/03/09 03:18:26;;;;;;;4.43;2.80;;;-1.30;99.90;;;;;;6131946;23;20021;-85
2022/03/09 03:20:54;;;;;;;;;;;-1.40;99.90;;;;;;6182759;23;20096;-85
2022/03/09 03:23:28;;;;;;;6.38;3.42;;;-1.40;99.90;;;;;;6157617;23;19947;-86
2022/03/09 03:25:54;;;;;;;5.15;4.28;;;-1.20;99.90;;;;;;6156866;23;20019;-85
2022/03/09 03:28:21;;;;;;;5.50;3.55;;;-1.50;99.90;;;;;;6181910;23;20016;-86
2022/03/09 03:30:48;;;;;;;5.00;3.15;;;-1.50;99.90;;;;;;6157354;23;20031;-85
2022/03/09 03:33:15;;;;;;;5.45;3.67;;;-1.50;99.90;;;;;;6181140;23;20021;-85
2022/03/09 03:35:42;;;;;;;8.27;3.83;;;-1.60;99.90;;;;;;6182182;23;20021;-86
2022/03/09 03:38:07;;;;;;;7.68;4.10;;;-1.50;99.90;;;;;;6157422;23;20097;-85
2022/03/09 03:40:33;;;;;;;9.25;3.33;;;-1.50;99.90;;;;;;6186730;23;20021;-85
2022/03/09 03:42:59;;;;;;;4.00;3.33;;;-1.50;99.90;;;;;;6182140;23;20023;-85
2022/03/09 03:45:25;;;;;;;7.43;3.83;;;-1.40;99.90;;;;;;6181829;23;20083;-85
2022/03/09 03:47:51;;;;;;;5.90;3.35;;;-1.40;99.90;;;;;;6132673;23;20088;-85
2022/03/09 03:50:17;;;;;;;;;;;-1.30;99.90;;;;;;6181444;23;20460;-85
2022/03/09 03:52:43;;;;;;;6.22;3.15;;;-1.40;99.90;;;;;;6207167;23;19923;-85
2022/03/09 03:55:09;;;;;;;;;;;-1.30;99.90;;;;;;6157405;23;20090;-86
2022/03/09 03:57:34;;;;;;;4.20;3.25;;;-1.30;99.90;;;;;;6158146;23;19924;-86
2022/03/09 04:00:01;;;;;;;8.20;3.50;;;-1.40;99.90;;;;;;6165063;23;20025;-85
2022/03/09 04:02:26;;;;;;;7.13;3.78;;;-1.40;99.90;;;;;;6166904;23;20048;-87
2022/03/09 04:04:52;;;;;;;3.63;2.90;;;-1.40;99.90;;;;;;6131575;23;20017;-86
2022/03/09 04:07:18;;;;;;;;;;;-0.70;99.90;;;;;;6133806;23;20013;-87
2022/03/09 04:09:44;;;;;;;6.30;3.33;;;-1.40;99.90;;;;;;6160529;23;19912;-86
2022/03/09 04:12:10;;;;;;;3.53;2.75;;;-1.10;99.90;;;;;;6185762;23;20043;-88
2022/03/09 04:14:35;;;;;;;;;;;-1.00;99.90;;;;;;6134138;23;20111;-86
2022/03/09 04:17:01;;;;;;;5.82;4.15;;;-1.50;99.90;;;;;;6188055;23;19940;-87
2022/03/09 04:19:27;;;;;;;;;;;-1.50;99.90;;;;;;6181523;23;20025;-87
2022/03/09 04:21:52;;;;;;;6.35;3.38;;;-1.50;99.90;;;;;;6180985;23;20315;-86
2022/03/09 04:24:18;;;;;;;;;;;-0.90;99.90;;;;;;6161899;23;20048;-85
2022/03/09 04:26:44;;;;;;;7.68;3.60;;;-0.70;99.90;;;;;;6135984;23;19916;-85
2022/03/09 04:29:10;;;;;;;;;;;-1.40;99.90;;;;;;6181895;23;20044;-85
2022/03/09 04:31:36;;;;;;;2.72;2.42;;;-1.40;99.90;;;;;;6158126;23;20014;-87
2022/03/09 04:34:02;;;;;;;8.27;3.75;;;-1.40;99.90;;;;;;6156478;23;20400;-87
2022/03/09 04:36:28;;;;;;;5.53;3.17;;;-1.30;99.90;;;;;;6182229;23;20017;-86
2022/03/09 04:38:54;;;;;;;;;;;-1.40;99.90;;;;;;6181911;23;20503;-87
2022/03/09 04:41:20;;;;;;;7.45;3.85;;;-1.40;99.90;;;;;;6206885;23;20285;-87
2022/03/09 04:43:45;;;;;;;;;;;-1.40;99.90;;;;;;6181925;23;20017;-85
2022/03/09 04:46:11;;;;;;;6.75;3.70;;;-1.40;99.90;;;;;;6190417;23;19972;-86
2022/03/09 04:48:37;;;;;;;;;;;-1.40;99.90;;;;;;6161890;23;20017;-86
2022/03/09 04:51:04;;;;;;;6.85;3.80;;;-0.90;99.90;;;;;;6131852;23;20316;-87
2022/03/09 04:53:31;;;;;;;8.77;3.47;;;-1.50;99.90;;;;;;6181350;23;20486;-87
2022/03/09 04:55:57;;;;;;;5.63;3.58;;;-1.50;99.90;;;;;;6157043;23;20025;-88
2022/03/09 04:58:23;;;;;;;5.13;3.83;;;-1.60;99.90;;;;;;6187229;23;20071;-87
2022/03/09 05:00:49;;;;;;;6.05;3.72;;;-1.60;99.90;;;;;;6183126;23;20028;-87
2022/03/09 05:03:15;;;;;;;6.45;3.72;;;-1.60;99.90;;;;;;6157143;23;20460;-88
2022/03/09 05:05:41;;;;;;;4.82;3.70;;;-1.60;99.90;;;;;;6134689;23;20103;-87
2022/03/09 05:08:06;;;;;;;;;;;-1.70;99.90;;;;;;6184261;23;20029;-87
2022/03/09 05:10:32;;;;;;;9.00;3.53;;;-1.00;99.90;;;;;;6182635;23;20288;-87
2022/03/09 05:12:58;;;;;;;7.05;4.45;;;-1.70;99.90;;;;;;6181779;23;20024;-87
2022/03/09 05:15:23;;;;;;;;;;;-1.30;99.90;;;;;;6157845;23;20056;-86
2022/03/09 05:17:49;;;;;;;6.72;3.75;;;-1.80;99.90;;;;;;6159443;23;19912;-86
2022/03/09 05:20:20;;;;;;;5.63;4.63;;;-1.80;99.90;;;;;;6189299;23;20024;-87
2022/03/09 05:22:46;;;;;;;8.48;3.60;;;-1.20;99.90;;;;;;6152380;23;20028;-85
2022/03/09 05:25:12;;;;;;;8.48;4.68;;;-0.40;99.90;;;;;;6188682;23;20017;-85
2022/03/09 05:27:38;;;;;;;9.77;4.03;;;-1.70;99.90;;;;;;6159923;23;20091;-85
2022/03/09 05:30:05;;;;;;;6.20;4.38;;;-1.70;99.90;;;;;;6132515;23;20021;-87
2022/03/09 05:32:31;;;;;;;4.28;3.13;;;-1.70;99.90;;;;;;6132903;23;20021;-86
2022/03/09 05:34:56;;;;;;;7.22;5.03;;;-1.70;99.90;;;;;;6131453;23;20360;-87
2022/03/09 05:37:23;;;;;;;6.75;3.90;;;-1.80;99.90;;;;;;6156752;23;20344;-85
2022/03/09 05:39:49;;;;;;;10.75;3.90;;;-1.50;99.90;;;;;;6181973;23;20092;-86
2022/03/09 05:42:14;;;;;;;;;;;-1.80;99.90;;;;;;6182010;23;20052;-84
2022/03/09 05:44:40;;;;;;;7.75;3.88;;;-1.80;99.90;;;;;;6180985;23;19912;-84
2022/03/09 05:47:06;;;;;;;;;;;-1.80;99.90;;;;;;6110612;23;20452;-85
2022/03/09 05:49:31;;;;;;;6.28;4.10;;;-1.90;99.90;;;;;;6132664;23;19919;-84
2022/03/09 05:51:57;;;;;;;9.00;4.60;;;-1.90;99.90;;;;;;6157325;23;20017;-86
2022/03/09 05:54:23;;;;;;;5.32;4.28;;;-1.90;99.90;;;;;;6184800;23;20025;-85
2022/03/09 05:56:49;;;;;;;;;;;-1.90;99.90;;;;;;6161281;23;20025;-85
2022/03/09 05:59:14;;;;;;;9.10;4.57;;;-1.90;99.90;;;;;;6155955;23;19916;-87
2022/03/09 06:01:40;;;;;;;7.22;4.60;;;-1.90;99.90;;;;;;6139801;23;20016;-84
2022/03/09 06:04:06;;;;;;;;;;;-1.80;99.90;;;;;;6132661;23;20519;-87
2022/03/09 06:06:32;;;;;;;9.35;4.05;;;-0.50;99.90;;;;;;6207190;23;20220;-86
2022/03/09 06:08:57;;;;;;;;;;;-1.80;99.90;;;;;;6132816;23;20074;-88
2022/03/09 06:11:24;;;;;;;8.95;5.43;;;-1.80;99.90;;;;;;6182474;23;20398;-88
2022/03/09 06:13:50;;;;;;;10.00;4.85;;;-1.80;99.90;;;;;;6157657;23;20021;-88
2022/03/09 06:16:16;;;;;;;5.60;3.38;;;-1.80;99.90;;;;;;6181805;23;20036;-87
2022/03/09 06:18:46;;;;;;;8.43;4.20;;;-1.80;99.90;;;;;;6156877;23;20017;-87
2022/03/09 06:21:15;;;;;;;4.45;3.55;;;-1.80;99.90;;;;;;6182668;23;20017;-87
2022/03/09 06:23:41;;;;;;;6.00;4.40;;;-1.70;99.90;;;;;;6159357;23;20021;-87
2022/03/09 06:26:07;;;;;;;6.93;4.88;;;-1.60;99.90;;;;;;6187307;23;20013;-88
2022/03/09 06:28:33;;;;;;;8.63;4.45;;;-1.00;99.90;;;;;;6196525;23;20040;-89
2022/03/09 06:30:59;;;;;;;5.68;4.03;;;-1.70;99.90;;;;;;6151153;23;20083;-88
2022/03/09 06:33:25;;;;;;;;;;;-0.10;99.90;;;;;;6163725;23;20017;-87
2022/03/09 06:35:51;;;;;;;8.57;4.32;;;-1.50;99.90;;;;;;6162769;23;19916;-88
2022/03/09 06:38:17;;;;;;;;;;;-1.00;99.90;;;;;;6113234;23;20059;-87
2022/03/09 06:40:43;;;;;;;6.65;4.28;;;-1.50;99.90;;;;;;6184616;23;19916;-88
2022/03/09 06:43:09;;;;;;;9.25;4.50;;;-1.50;99.90;;;;;;6158921;23;20017;-87
2022/03/09 06:45:35;;;;;;;8.52;3.95;;;-1.50;99.90;;;;;;6184542;23;20024;-88
2022/03/09 06:48:02;;;;;;;12.40;5.32;;;-1.50;99.90;;;;;;6184170;23;20017;-87
2022/03/09 06:50:29;;;;;;;7.90;3.90;;;-1.50;99.90;;;;;;6159130;23;20025;-88
2022/03/09 06:52:55;;;;;;;9.43;4.38;;;-1.40;99.90;;;;;;6135728;23;20028;-88
2022/03/09 06:55:22;;;;;;;10.73;4.60;;;-1.40;99.90;;;;;;6135967;23;20101;-88
2022/03/09 06:57:48;;;;;;;;;;;-1.20;99.90;;;;;;6185314;23;20163;-88
2022/03/09 07:00:14;;;;;;;4.32;3.67;;;-1.10;99.90;;;;;;6184621;23;19920;-87
2022/03/09 07:02:41;;;;;;;7.75;4.57;;;-1.00;99.90;;;;;;6159173;23;20017;-87
2022/03/09 07:05:07;;;;;;;6.57;4.88;;;-0.90;99.90;;;;;;6183195;23;20017;-87
2022/03/09 07:07:33;;;;;;;8.82;4.57;;;-0.70;99.90;;;;;;6160852;23;20021;-87
2022/03/09 07:09:59;;;;;;;;;;;-0.20;99.90;;;;;;6160197;23;20336;-86
2022/03/09 07:12:26;;;;;;;12.88;5.03;;;-0.40;99.90;;;;;;6209669;23;19948;-86
2022/03/09 07:14:52;;;;;;;5.35;4.43;;;-0.30;99.90;;;;;;6160448;23;20456;-91
2022/03/09 07:17:18;;;;;;;8.00;4.65;;;1.30;99.90;;;;;;6142040;23;20070;-87
2022/03/09 07:19:44;;;;;;;6.65;4.25;;;0.00;99.90;;;;;;6185507;23;20017;-88
2022/03/09 07:22:10;;;;;;;12.82;5.18;;;1.40;99.90;;;;;;6163001;23;20055;-89
2022/03/09 07:24:36;;;;;;;7.82;4.55;;;0.30;99.90;;;;;;6112634;23;20069;-88
2022/03/09 07:27:02;;;;;;;8.18;4.32;;;0.50;99.90;;;;;;6159739;23;20024;-89
2022/03/09 07:29:28;;;;;;;7.53;5.28;;;0.60;99.90;;;;;;6137716;23;20017;-88
2022/03/09 07:31:54;;;;;;;7.43;4.63;;;0.70;99.90;;;;;;6111916;23;20027;-91
2022/03/09 07:34:30;;;;;;;15.05;5.47;;;1.20;99.90;;;;;;6113936;23;20021;-91
2022/03/09 07:36:58;;;;;;;7.20;4.95;;;1.00;99.90;;;;;;6188364;23;20028;-88
2022/03/09 07:39:26;;;;;;;10.07;5.40;;;1.10;99.90;;;;;;6136835;23;20017;-90
2022/03/09 07:41:56;;;;;;;7.25;4.13;;;1.20;99.90;;;;;;6136059;23;20344;-89
2022/03/09 07:44:22;;;;;;;7.75;4.30;;;1.30;99.90;;;;;;6160610;23;20084;-89
2022/03/09 07:46:49;;;;;;;7.60;4.88;;;1.30;99.90;;;;;;6160092;23;20100;-89
2022/03/09 07:49:16;;;;;;;7.60;4.53;;;1.50;99.90;;;;;;6183176;23;20036;-89
2022/03/09 07:51:42;;;;;;;10.20;5.35;;;1.60;99.90;;;;;;6167567;23;20440;-89
2022/03/09 07:54:08;;;;;;;8.73;5.18;;;1.70;99.90;;;;;;6191923;23;20101;-89
2022/03/09 07:56:35;;;;;;;7.28;4.72;;;2.80;99.90;;;;;;6161242;23;20024;-89
2022/03/09 07:59:03;;;;;;;7.35;4.68;;;1.80;99.90;;;;;;6112108;23;20027;-89
2022/03/09 08:01:28;;;;;;;11.00;4.78;;;1.90;99.90;;;;;;6169129;23;20005;-89
2022/03/09 08:03:54;;;;;;;5.90;4.28;;;2.50;99.90;;;;;;6153283;23;20024;-89
2022/03/09 08:06:20;;;;;;;7.95;4.63;;;2.10;99.90;;;;;;6149683;23;20005;-91
2022/03/09 08:08:46;;;;;;;7.75;3.70;;;2.30;99.90;;;;;;6202468;23;20040;-89
2022/03/09 08:11:12;;;;;;;;;;;2.60;99.90;;;;;;6148544;23;20009;-91
2022/03/09 08:13:38;;;;;;;8.60;3.92;;;2.30;99.90;;;;;;6186567;23;19919;-89
2022/03/09 08:16:04;;;;;;;9.02;4.50;;;2.60;99.90;;;;;;6138123;23;20342;-91
2022/03/09 08:18:30;;;;;;;12.20;5.65;;;2.50;99.90;;;;;;6170705;23;20060;-88
2022/03/09 08:20:55;;;;;;;10.88;5.30;;;2.60;99.90;;;;;;6208216;23;20112;-87
2022/03/09 08:23:23;;;;;;;9.52;4.97;;;2.70;99.90;;;;;;6141175;23;20116;-91
2022/03/09 08:25:49;;;;;;;10.25;4.88;;;3.60;99.90;;;;;;6136330;23;20020;-90
2022/03/09 08:28:15;;;;;;;9.00;4.63;;;3.00;99.90;;;;;;6159695;23;20516;-88
2022/03/09 08:30:41;;;;;;;;;;;4.20;99.90;;;;;;6160315;23;20083;-89
2022/03/09 08:33:07;;;;;;;6.20;4.65;;;3.20;99.90;;;;;;6136032;23;20326;-90
2022/03/09 08:35:33;;;;;;;7.47;5.05;;;3.30;99.90;;;;;;6161608;23;20453;-89
2022/03/09 08:37:59;;;;;;;8.77;5.40;;;4.50;99.90;;;;;;6161886;23;20028;-89
2022/03/09 08:40:25;;;;;;;10.10;5.82;;;3.50;99.90;;;;;;6160830;23;20023;-91
2022/03/09 08:42:51;;;;;;;10.18;4.88;;;3.60;99.90;;;;;;6186052;23;20092;-90
2022/03/09 08:45:17;;;;;;;9.48;4.75;;;3.70;99.90;;;;;;6161234;23;20059;-91
2022/03/09 08:47:42;;;;;;;6.68;4.68;;;3.90;99.90;;;;;;6186962;23;20021;-89
2022/03/09 08:50:09;;;;;;;11.25;5.13;;;4.10;99.90;;;;;;6150615;23;20017;-89
2022/03/09 08:52:35;;;;;;;10.32;4.88;;;4.00;99.90;;;;;;6181742;23;20021;-88
2022/03/09 08:55:01;;;;;;;7.85;5.45;;;4.10;99.90;;;;;;6160283;23;20020;-88
2022/03/09 08:57:27;;;;;;;5.53;4.18;;;4.20;99.90;;;;;;6202764;23;20021;-89
2022/03/09 08:59:52;;;;;;;7.35;4.55;;;4.30;99.90;;;;;;6192935;23;20016;-89
2022/03/09 09:02:19;;;;;;;6.97;3.88;;;4.90;99.90;;;;;;6188797;23;20112;-90
2022/03/09 09:04:44;;;;;;;;;;;4.50;99.90;;;;;;6139321;23;20026;-89
2022/03/09 09:07:10;;;;;;;10.65;5.40;;;4.50;99.90;;;;;;6186644;23;19912;-90
2022/03/09 09:09:36;;;;;;;10.52;4.80;;;4.60;99.90;;;;;;6161601;23;20028;-88
2022/03/09 09:12:02;;;;;;;6.70;4.68;;;4.80;99.90;;;;;;6138506;23;20017;-89
2022/03/09 09:14:28;;;;;;;;;;;4.80;99.90;;;;;;6137711;23;20056;-89
2022/03/09 09:16:54;;;;;;;10.00;4.53;;;4.90;99.90;;;;;;6163054;23;19935;-90
2022/03/09 09:19:20;;;;;;;12.57;4.97;;;5.00;99.90;;;;;;6162001;23;20345;-88
2022/03/09 09:21:47;;;;;;;10.80;4.50;;;5.10;99.90;;;;;;6165367;23;20027;-90
2022/03/09 09:24:13;;;;;;;8.05;4.88;;;5.20;99.90;;;;;;6189021;23;20096;-90
2022/03/09 09:26:39;;;;;;;6.57;4.35;;;5.20;99.90;;;;;;6163833;23;20024;-91
2022/03/09 09:29:06;;;;;;;6.63;4.28;;;5.30;99.90;;;;;;6161437;23;20017;-91
2022/03/09 09:31:32;;;;;;;8.20;5.03;;;5.40;99.90;;;;;;6138702;23;20032;-91
2022/03/09 09:33:58;;;;;;;7.75;4.60;;;5.40;99.90;;;;;;6163298;23;20017;-90
2022/03/09 09:36:25;;;;;;;9.57;5.15;;;5.50;99.90;;;;;;6149318;23;20009;-89
2022/03/09 09:38:51;;;;;;;7.03;3.88;;;6.80;99.90;;;;;;6161472;23;20071;-89
2022/03/09 09:41:19;;;;;;;7.25;4.25;;;5.70;99.90;;;;;;6179623;23;20029;-89
2022/03/09 09:43:47;;;;;;;6.93;4.82;;;5.80;99.90;;;;;;6162183;23;20366;-90
2022/03/09 09:46:15;;;;;;;10.18;4.70;;;5.90;99.90;;;;;;6137365;23;20021;-89
2022/03/09 09:48:42;;;;;;;6.78;4.35;;;6.70;99.90;;;;;;6164538;23;20441;-90
2022/03/09 09:51:09;;;;;;;8.60;4.85;;;6.00;99.90;;;;;;6138483;23;20045;-91
2022/03/09 09:53:35;;;;;;;7.35;5.15;;;6.10;99.90;;;;;;6167385;23;20025;-90
2022/03/09 09:56:03;;;;;;;7.60;5.15;;;6.30;99.90;;;;;;6166106;23;20028;-91
2022/03/09 09:58:29;;;;;;;9.10;5.30;;;6.40;99.90;;;;;;6149306;23;20025;-92
2022/03/09 10:00:56;;;;;;;9.55;5.03;;;6.50;99.90;;;;;;6181322;23;20025;-90
2022/03/09 10:03:23;;;;;;;12.25;5.82;;;6.50;99.90;;;;;;6190172;23;20017;-90
2022/03/09 10:05:50;;;;;;;6.03;4.78;;;6.70;99.90;;;;;;6188852;23;20340;-91
2022/03/09 10:08:18;;;;;;;8.07;4.68;;;6.80;99.90;;;;;;6163361;23;20362;-89
2022/03/09 10:11:02;;;;;;;8.73;4.93;;;6.90;99.90;;;;;;6160084;23;20076;-90
2022/03/09 10:13:35;;;;;;;8.20;4.72;;;6.90;99.90;;;;;;6159473;23;20021;-90
2022/03/09 10:16:20;;;;;;;11.10;5.28;;;7.00;99.90;;;;;;6159865;23;20025;-89
2022/03/09 10:18:54;;;;;;;7.40;4.78;;;7.10;99.90;;;;;;6187647;23;20021;-89
2022/03/09 10:21:23;;;;;;;9.35;4.97;;;7.30;99.90;;;;;;6173746;23;20017;-87
2022/03/09 10:24:01;;;;;;;8.85;5.18;;;7.40;99.90;;;;;;6179258;23;20073;-88
2022/03/09 10:26:48;;;;;;;11.43;6.07;;;7.40;99.90;;;;;;6196378;23;20021;-86
2022/03/09 10:29:18;;;;;;;10.95;4.78;;;7.60;99.70;;;;;;6188602;23;20027;-89
2022/03/09 10:31:47;;;;;;;8.10;5.00;;;7.60;97.70;;;;;;6137913;23;20051;-89
2022/03/09 10:34:20;;;;;;;9.07;5.13;;;7.70;97.80;;;;;;6162622;23;20024;-88
2022/03/09 10:37:00;;;;;;;10.15;4.90;;;7.80;97.90;;;;;;6168195;23;20017;-89
2022/03/09 10:39:31;;;;;;;11.55;5.65;;;7.90;94.60;;;;;;6159070;23;20353;-89
2022/03/09 10:42:01;;;;;;;6.05;4.20;;;8.00;96.70;;;;;;6183689;23;20449;-90
2022/03/09 10:44:47;;;;;;;6.22;4.45;;;8.10;96.40;;;;;;6182181;23;20830;-88
2022/03/09 10:47:29;;;;;;;6.75;4.63;;;8.20;94.40;;;;;;6195124;23;20021;-87
2022/03/09 10:50:17;;;;;;;13.82;5.20;;;8.30;95.00;;;;;;6195422;23;20009;-88
2022/03/09 10:52:49;;;;;;;7.03;4.43;;;8.30;91.00;;;;;;6171204;23;20028;-88
2022/03/09 10:55:31;;;;;;;8.57;4.72;;;8.40;94.00;;;;;;6191093;23;20025;-88
2022/03/09 10:58:21;;;;;;;9.23;5.43;;;8.50;93.50;;;;;;6186858;23;20075;-88
2022/03/09 11:00:52;;;;;;;13.45;5.38;;;8.60;94.00;;;;;;6159056;23;20399;-91
2022/03/09 11:03:24;;;;;;;8.55;4.20;;;8.70;94.50;;;;;;6167367;23;20027;-88
2022/03/09 11:05:54;;;;;;;8.80;5.18;;;8.80;94.80;;;;;;6160461;23;20024;-90
2022/03/09 11:08:24;;;;;;;8.90;4.72;;;8.80;92.20;;;;;;6159442;23;20452;-88
2022/03/09 11:10:50;;;;;;;8.20;4.72;;;8.90;93.60;;;;;;6188558;23;20045;-87
2022/03/09 11:13:16;;;;;;;;;;;8.90;93.20;;;;;;6195618;23;20028;-88
2022/03/09 11:15:43;;;;;;;6.97;4.93;;;9.00;91.90;;;;;;6169420;23;19912;-88
2022/03/09 11:18:20;;;;;;;9.55;5.03;;;9.00;93.20;;;;;;6180608;23;20075;-87
2022/03/09 11:20:48;;;;;;;9.70;5.55;;;9.10;89.90;;;;;;6182645;23;20080;-88
2022/03/09 11:23:15;;;;;;;8.43;4.60;;;9.20;92.20;;;;;;6160828;23;20028;-89
2022/03/09 11:25:48;;;;;;;10.30;5.18;;;9.30;90.60;;;;;;6185594;23;20013;-89
2022/03/09 11:28:24;;;;;;;9.35;4.97;;;9.40;90.80;;;;;;6157875;23;20305;-89
2022/03/09 11:31:21;;;;;;;8.13;4.55;;;9.40;90.30;;;;;;6181789;23;20138;-89
2022/03/09 11:33:48;;;;;;;9.33;5.20;;;9.50;84.20;;;;;;6178331;23;20471;-90
2022/03/09 11:36:29;;;;;;;8.35;4.70;;;9.50;89.90;;;;;;6200608;23;20021;-90
2022/03/09 11:39:04;;;;;;;10.23;6.00;;;9.60;87.50;;;;;;6187900;23;20068;-89
2022/03/09 11:41:36;;;;;;;8.77;4.90;;;9.70;81.00;;;;;;6184143;23;20100;-90
2022/03/09 11:44:20;;;;;;;8.52;5.25;;;9.70;87.20;;;;;;6159041;23;20017;-89
2022/03/09 11:47:17;;;;;;;8.05;5.32;;;9.90;86.40;;;;;;6160237;23;20021;-89
2022/03/09 11:49:43;;;;;;;10.50;5.70;;;10.10;85.80;;;;;;6161943;23;20386;-90
2022/03/09 11:52:26;;;;;;;13.90;5.15;;;10.20;86.80;;;;;;6163114;23;20527;-89
2022/03/09 11:54:55;;;;;;;8.82;5.72;;;10.30;85.90;;;;;;6159653;23;20087;-89
2022/03/09 11:57:23;;;;;;;7.85;4.95;;;10.40;85.00;;;;;;6186277;23;20021;-89
2022/03/09 12:00:02;;;;;;;10.45;5.80;;;10.40;83.70;;;;;;6188405;23;20318;-89
2022/03/09 12:02:39;;;;;;;16.30;5.57;;;10.50;82.00;;;;;;6160883;23;20024;-89
2022/03/09 12:05:05;;;;;;;;;;;10.60;80.60;;;;;;6184890;23;20521;-89
2022/03/09 12:07:44;;;;;;;9.73;5.35;;;10.60;75.20;;;;;;6209056;23;19963;-91
2022/03/09 12:10:12;;;;;;;9.98;5.05;;;10.60;80.50;;;;;;6158641;23;20314;-88
2022/03/09 12:12:58;;;;;;;14.02;6.05;;;10.60;81.20;;;;;;6186324;23;20016;-89
2022/03/09 12:15:24;;;;;;;14.20;7.90;;;10.60;79.60;;;;;;6163859;23;20087;-88
2022/03/09 12:17:50;;;;;;;9.18;5.10;;;10.60;79.70;;;;;;6140752;23;20020;-88
2022/03/09 12:20:30;;;;;;;8.73;5.07;;;10.70;79.20;;;;;;6165919;23;20028;-88
2022/03/09 12:23:16;;;;;;;10.07;5.38;;;10.80;74.30;;;;;;6189717;23;20024;-90
2022/03/09 12:25:48;;;;;;;10.55;5.65;;;10.80;74.90;;;;;;6195120;23;20036;-88
2022/03/09 12:28:31;;;;;;;8.75;4.90;;;10.90;75.10;;;;;;6163878;23;20025;-88
2022/03/09 12:31:03;;;;;;;11.43;5.28;;;10.90;70.10;;;;;;6160304;23;20020;-88
2022/03/09 12:33:37;;;;;;;8.95;5.45;;;11.00;74.10;;;;;;6160608;23;20025;-89
2022/03/09 12:36:21;;;;;;;9.20;6.10;;;11.10;70.00;;;;;;6186587;23;20024;-89
2022/03/09 12:39:02;;;;;;;11.70;5.20;;;11.10;72.10;;;;;;6189055;23;20467;-89
2022/03/09 12:41:37;;;;;;;8.10;4.68;;;11.20;71.70;;;;;;6144029;23;20028;-88
2022/03/09 12:44:11;;;;;;;10.43;5.13;;;11.30;72.90;;;;;;6172642;23;20029;-89
2022/03/09 12:46:40;;;;;;;10.43;5.35;;;11.40;71.10;;;;;;6186426;23;20021;-89
2022/03/09 12:49:12;;;;;;;8.18;5.07;;;11.40;69.70;;;;;;6135207;23;20021;-88
2022/03/09 12:51:47;;;;;;;7.93;4.80;;;11.40;69.00;;;;;;6160309;23;20025;-90
2022/03/09 12:54:13;;;;;;;9.32;5.82;;;11.50;67.70;;;;;;6185472;23;20538;-90
2022/03/09 12:56:39;;;;;;;6.88;4.72;;;11.50;68.20;;;;;;6186889;23;20100;-89
2022/03/09 12:59:16;;;;;;;9.88;5.85;;;11.60;67.70;;;;;;6113477;23;20345;-88
2022/03/09 13:01:53;;;;;;;8.30;5.00;;;11.70;61.30;;;;;;6164431;23;20013;-88
2022/03/09 13:04:22;;;;;;;;;;;11.70;62.60;;;;;;6187328;23;20017;-88
2022/03/09 13:06:50;;;;;;;12.23;5.20;;;11.80;64.50;;;;;;6144362;23;19912;-90